sensor_id;sensor_type;location;lat;lon;timestamp;P1;durP1;ratioP1;P2;durP2;ratioP2
51529;SDS011;37613;51.788;21.582;2023-06-26T00:03:03;24.00;;;13.70;;
51529;SDS011;37613;51.788;21.582;2023-06-26T00:07:18;21.70;;;13.80;;
51529;SDS011;37613;51.788;21.582;2023-06-26T00:11:39;18.00;;;12.10;;
51529;SDS011;37613;51.788;21.582;2023-06-26T00:16:01;22.70;;;13.30;;
51529;SDS011;37613;51.788;21.582;2023-06-26T00:20:21;22.90;;;12.70;;
51529;SDS011;37613;51.788;21.582;2023-06-26T00:24:38;22.60;;;12.80;;
51529;SDS011;37613;51.788;21.582;2023-06-26T00:29:03;20.70;;;12.80;;
51529;SDS011;37613;51.788;21.582;2023-06-26T00:33:16;19.30;;;13.30;;
51529;SDS011;37613;51.788;21.582;2023-06-26T00:37:40;21.30;;;12.30;;
51529;SDS011;37613;51.788;21.582;2023-06-26T00:42:08;20.90;;;12.80;;
51529;SDS011;37613;51.788;21.582;2023-06-26T00:46:25;19.40;;;12.60;;
51529;SDS011;37613;51.788;21.582;2023-06-26T00:50:47;23.80;;;13.50;;
51529;SDS011;37613;51.788;21.582;2023-06-26T00:55:02;17.60;;;12.50;;
51529;SDS011;37613;51.788;21.582;2023-06-26T00:59:31;22.10;;;12.10;;
51529;SDS011;37613;51.788;21.582;2023-06-26T01:03:50;18.20;;;11.70;;
51529;SDS011;37613;51.788;21.582;2023-06-26T01:12:46;27.60;;;12.40;;
51529;SDS011;37613;51.788;21.582;2023-06-26T01:17:28;21.70;;;12.10;;
51529;SDS011;37613;51.788;21.582;2023-06-26T01:21:47;19.20;;;12.00;;
51529;SDS011;37613;51.788;21.582;2023-06-26T01:31:14;23.20;;;12.50;;
51529;SDS011;37613;51.788;21.582;2023-06-26T01:35:35;18.20;;;11.60;;
51529;SDS011;37613;51.788;21.582;2023-06-26T01:39:55;15.80;;;11.80;;
51529;SDS011;37613;51.788;21.582;2023-06-26T01:44:33;19.80;;;12.50;;
51529;SDS011;37613;51.788;21.582;2023-06-26T01:49:02;21.70;;;11.90;;
51529;SDS011;37613;51.788;21.582;2023-06-26T01:53:30;25.90;;;11.70;;
51529;SDS011;37613;51.788;21.582;2023-06-26T01:57:56;17.50;;;11.50;;
51529;SDS011;37613;51.788;21.582;2023-06-26T02:02:25;21.40;;;12.10;;
51529;SDS011;37613;51.788;21.582;2023-06-26T02:06:47;21.20;;;11.40;;
51529;SDS011;37613;51.788;21.582;2023-06-26T02:11:10;19.50;;;11.30;;
51529;SDS011;37613;51.788;21.582;2023-06-26T02:20:06;19.90;;;11.20;;
51529;SDS011;37613;51.788;21.582;2023-06-26T02:29:03;17.60;;;11.20;;
51529;SDS011;37613;51.788;21.582;2023-06-26T02:38:23;21.40;;;11.60;;
51529;SDS011;37613;51.788;21.582;2023-06-26T02:42:37;17.40;;;11.00;;
51529;SDS011;37613;51.788;21.582;2023-06-26T02:47:26;16.30;;;10.00;;
51529;SDS011;37613;51.788;21.582;2023-06-26T02:51:44;20.10;;;11.30;;
51529;SDS011;37613;51.788;21.582;2023-06-26T02:56:27;17.10;;;11.70;;
51529;SDS011;37613;51.788;21.582;2023-06-26T03:05:21;25.50;;;13.00;;
51529;SDS011;37613;51.788;21.582;2023-06-26T03:09:44;26.10;;;12.30;;
51529;SDS011;37613;51.788;21.582;2023-06-26T03:18:32;20.20;;;11.40;;
51529;SDS011;37613;51.788;21.582;2023-06-26T03:22:47;24.40;;;12.00;;
51529;SDS011;37613;51.788;21.582;2023-06-26T03:26:59;23.00;;;12.30;;
51529;SDS011;37613;51.788;21.582;2023-06-26T03:31:07;23.30;;;11.50;;
51529;SDS011;37613;51.788;21.582;2023-06-26T03:35:15;24.30;;;10.70;;
51529;SDS011;37613;51.788;21.582;2023-06-26T03:39:24;16.10;;;10.90;;
51529;SDS011;37613;51.788;21.582;2023-06-26T03:43:29;16.90;;;10.60;;
51529;SDS011;37613;51.788;21.582;2023-06-26T03:47:34;13.10;;;9.60;;
51529;SDS011;37613;51.788;21.582;2023-06-26T03:51:39;16.90;;;9.10;;
51529;SDS011;37613;51.788;21.582;2023-06-26T03:59:44;17.30;;;9.40;;
51529;SDS011;37613;51.788;21.582;2023-06-26T04:03:49;11.60;;;8.60;;
51529;SDS011;37613;51.788;21.582;2023-06-26T04:07:52;10.50;;;8.10;;
51529;SDS011;37613;51.788;21.582;2023-06-26T04:11:54;10.70;;;8.40;;
51529;SDS011;37613;51.788;21.582;2023-06-26T04:15:57;11.30;;;7.80;;
51529;SDS011;37613;51.788;21.582;2023-06-26T04:19:59;10.80;;;8.00;;
51529;SDS011;37613;51.788;21.582;2023-06-26T04:24:01;12.40;;;8.10;;
51529;SDS011;37613;51.788;21.582;2023-06-26T04:28:04;10.70;;;7.60;;
51529;SDS011;37613;51.788;21.582;2023-06-26T04:36:08;11.00;;;6.60;;
51529;SDS011;37613;51.788;21.582;2023-06-26T04:40:10;8.20;;;7.00;;
51529;SDS011;37613;51.788;21.582;2023-06-26T04:44:13;9.40;;;6.30;;
51529;SDS011;37613;51.788;21.582;2023-06-26T04:48:15;10.00;;;6.30;;
51529;SDS011;37613;51.788;21.582;2023-06-26T04:52:17;8.30;;;6.20;;
51529;SDS011;37613;51.788;21.582;2023-06-26T04:56:19;7.50;;;6.40;;
51529;SDS011;37613;51.788;21.582;2023-06-26T05:00:21;6.80;;;5.40;;
51529;SDS011;37613;51.788;21.582;2023-06-26T05:04:24;7.20;;;5.60;;
51529;SDS011;37613;51.788;21.582;2023-06-26T05:08:26;6.70;;;5.80;;
51529;SDS011;37613;51.788;21.582;2023-06-26T05:12:28;6.90;;;6.20;;
51529;SDS011;37613;51.788;21.582;2023-06-26T05:16:30;7.20;;;6.40;;
51529;SDS011;37613;51.788;21.582;2023-06-26T05:20:33;6.50;;;5.60;;
51529;SDS011;37613;51.788;21.582;2023-06-26T05:24:37;8.70;;;7.80;;
51529;SDS011;37613;51.788;21.582;2023-06-26T05:28:40;6.70;;;5.00;;
51529;SDS011;37613;51.788;21.582;2023-06-26T05:32:42;6.80;;;5.10;;
51529;SDS011;37613;51.788;21.582;2023-06-26T05:36:52;9.50;;;5.30;;
51529;SDS011;37613;51.788;21.582;2023-06-26T05:40:59;7.00;;;6.30;;
51529;SDS011;37613;51.788;21.582;2023-06-26T05:45:02;8.30;;;5.20;;
51529;SDS011;37613;51.788;21.582;2023-06-26T05:49:04;6.50;;;5.70;;
51529;SDS011;37613;51.788;21.582;2023-06-26T05:53:06;5.70;;;5.20;;
51529;SDS011;37613;51.788;21.582;2023-06-26T05:57:09;6.10;;;5.50;;
51529;SDS011;37613;51.788;21.582;2023-06-26T06:01:11;4.90;;;4.40;;
51529;SDS011;37613;51.788;21.582;2023-06-26T06:05:14;6.80;;;5.00;;
51529;SDS011;37613;51.788;21.582;2023-06-26T06:09:16;4.30;;;3.90;;
51529;SDS011;37613;51.788;21.582;2023-06-26T06:13:18;5.10;;;4.30;;
51529;SDS011;37613;51.788;21.582;2023-06-26T06:17:20;4.70;;;4.00;;
51529;SDS011;37613;51.788;21.582;2023-06-26T06:21:23;8.30;;;4.60;;
51529;SDS011;37613;51.788;21.582;2023-06-26T06:25:25;7.30;;;4.80;;
51529;SDS011;37613;51.788;21.582;2023-06-26T06:29:27;7.40;;;5.40;;
51529;SDS011;37613;51.788;21.582;2023-06-26T06:33:29;5.10;;;4.60;;
51529;SDS011;37613;51.788;21.582;2023-06-26T06:37:32;5.80;;;5.30;;
51529;SDS011;37613;51.788;21.582;2023-06-26T06:41:34;5.30;;;4.80;;
51529;SDS011;37613;51.788;21.582;2023-06-26T06:45:36;7.60;;;5.00;;
51529;SDS011;37613;51.788;21.582;2023-06-26T06:49:39;7.50;;;5.40;;
51529;SDS011;37613;51.788;21.582;2023-06-26T06:53:41;5.90;;;5.30;;
51529;SDS011;37613;51.788;21.582;2023-06-26T06:57:43;5.50;;;5.00;;
51529;SDS011;37613;51.788;21.582;2023-06-26T07:01:45;8.00;;;5.00;;
51529;SDS011;37613;51.788;21.582;2023-06-26T07:05:47;8.40;;;4.50;;
51529;SDS011;37613;51.788;21.582;2023-06-26T07:09:49;6.30;;;4.80;;
51529;SDS011;37613;51.788;21.582;2023-06-26T07:13:52;5.60;;;4.10;;
51529;SDS011;37613;51.788;21.582;2023-06-26T07:17:54;5.40;;;4.10;;
51529;SDS011;37613;51.788;21.582;2023-06-26T07:21:56;4.50;;;4.10;;
51529;SDS011;37613;51.788;21.582;2023-06-26T07:25:59;5.90;;;4.70;;
51529;SDS011;37613;51.788;21.582;2023-06-26T07:30:01;5.40;;;4.00;;
51529;SDS011;37613;51.788;21.582;2023-06-26T07:34:03;7.00;;;3.80;;
51529;SDS011;37613;51.788;21.582;2023-06-26T07:38:05;8.00;;;4.30;;
51529;SDS011;37613;51.788;21.582;2023-06-26T07:42:08;4.20;;;3.90;;
51529;SDS011;37613;51.788;21.582;2023-06-26T07:46:10;3.90;;;3.40;;
51529;SDS011;37613;51.788;21.582;2023-06-26T07:50:12;4.70;;;3.50;;
51529;SDS011;37613;51.788;21.582;2023-06-26T07:54:17;4.20;;;3.60;;
51529;SDS011;37613;51.788;21.582;2023-06-26T07:58:19;4.90;;;3.70;;
51529;SDS011;37613;51.788;21.582;2023-06-26T08:02:21;5.20;;;3.50;;
51529;SDS011;37613;51.788;21.582;2023-06-26T08:06:24;4.40;;;3.70;;
51529;SDS011;37613;51.788;21.582;2023-06-26T08:10:26;4.10;;;3.50;;
51529;SDS011;37613;51.788;21.582;2023-06-26T08:14:28;3.90;;;3.50;;
51529;SDS011;37613;51.788;21.582;2023-06-26T08:18:30;3.70;;;3.40;;
51529;SDS011;37613;51.788;21.582;2023-06-26T08:22:32;5.00;;;3.80;;
51529;SDS011;37613;51.788;21.582;2023-06-26T08:26:35;4.60;;;3.40;;
51529;SDS011;37613;51.788;21.582;2023-06-26T08:30:37;6.30;;;3.20;;
51529;SDS011;37613;51.788;21.582;2023-06-26T08:34:39;3.20;;;2.90;;
51529;SDS011;37613;51.788;21.582;2023-06-26T08:38:41;4.60;;;3.20;;
51529;SDS011;37613;51.788;21.582;2023-06-26T08:42:44;5.60;;;3.60;;
51529;SDS011;37613;51.788;21.582;2023-06-26T08:46:46;3.30;;;3.00;;
51529;SDS011;37613;51.788;21.582;2023-06-26T08:50:49;3.40;;;2.80;;
51529;SDS011;37613;51.788;21.582;2023-06-26T08:54:56;6.30;;;3.90;;
51529;SDS011;37613;51.788;21.582;2023-06-26T08:59:00;3.60;;;2.50;;
51529;SDS011;37613;51.788;21.582;2023-06-26T09:03:03;3.70;;;2.90;;
51529;SDS011;37613;51.788;21.582;2023-06-26T09:07:06;3.30;;;2.80;;
51529;SDS011;37613;51.788;21.582;2023-06-26T09:11:09;3.30;;;2.60;;
51529;SDS011;37613;51.788;21.582;2023-06-26T09:15:13;2.80;;;2.60;;
51529;SDS011;37613;51.788;21.582;2023-06-26T09:19:16;2.80;;;2.50;;
51529;SDS011;37613;51.788;21.582;2023-06-26T09:23:18;3.50;;;2.40;;
51529;SDS011;37613;51.788;21.582;2023-06-26T09:27:23;4.30;;;2.30;;
51529;SDS011;37613;51.788;21.582;2023-06-26T09:31:25;2.40;;;2.20;;
51529;SDS011;37613;51.788;21.582;2023-06-26T09:35:27;2.90;;;2.40;;
51529;SDS011;37613;51.788;21.582;2023-06-26T09:39:30;2.80;;;2.10;;
51529;SDS011;37613;51.788;21.582;2023-06-26T09:43:33;3.50;;;2.00;;
51529;SDS011;37613;51.788;21.582;2023-06-26T09:47:35;3.50;;;2.60;;
51529;SDS011;37613;51.788;21.582;2023-06-26T09:51:38;4.70;;;2.90;;
51529;SDS011;37613;51.788;21.582;2023-06-26T09:55:42;2.30;;;2.10;;
51529;SDS011;37613;51.788;21.582;2023-06-26T09:59:45;2.90;;;2.60;;
51529;SDS011;37613;51.788;21.582;2023-06-26T10:03:47;2.50;;;2.30;;
51529;SDS011;37613;51.788;21.582;2023-06-26T10:07:50;2.50;;;2.30;;
51529;SDS011;37613;51.788;21.582;2023-06-26T10:11:58;3.00;;;2.30;;
51529;SDS011;37613;51.788;21.582;2023-06-26T10:20:09;2.70;;;2.50;;
51529;SDS011;37613;51.788;21.582;2023-06-26T10:24:11;3.10;;;2.50;;
51529;SDS011;37613;51.788;21.582;2023-06-26T10:28:15;4.40;;;2.80;;
51529;SDS011;37613;51.788;21.582;2023-06-26T10:32:19;4.40;;;3.00;;
51529;SDS011;37613;51.788;21.582;2023-06-26T10:36:29;5.30;;;3.10;;
51529;SDS011;37613;51.788;21.582;2023-06-26T10:40:42;3.00;;;2.60;;
51529;SDS011;37613;51.788;21.582;2023-06-26T10:44:47;4.80;;;3.10;;
51529;SDS011;37613;51.788;21.582;2023-06-26T10:48:56;3.20;;;2.70;;
51529;SDS011;37613;51.788;21.582;2023-06-26T10:57:23;3.10;;;2.80;;
51529;SDS011;37613;51.788;21.582;2023-06-26T11:01:28;4.70;;;2.90;;
51529;SDS011;37613;51.788;21.582;2023-06-26T11:05:32;3.60;;;2.90;;
51529;SDS011;37613;51.788;21.582;2023-06-26T11:09:37;5.00;;;2.80;;
51529;SDS011;37613;51.788;21.582;2023-06-26T11:14:12;2.80;;;2.60;;
51529;SDS011;37613;51.788;21.582;2023-06-26T11:18:15;6.20;;;2.70;;
51529;SDS011;37613;51.788;21.582;2023-06-26T11:22:18;6.30;;;2.70;;
51529;SDS011;37613;51.788;21.582;2023-06-26T11:26:21;4.70;;;2.50;;
51529;SDS011;37613;51.788;21.582;2023-06-26T11:30:24;2.80;;;2.50;;
51529;SDS011;37613;51.788;21.582;2023-06-26T11:34:29;2.60;;;2.40;;
51529;SDS011;37613;51.788;21.582;2023-06-26T11:38:36;3.50;;;2.70;;
51529;SDS011;37613;51.788;21.582;2023-06-26T11:42:39;2.90;;;2.60;;
51529;SDS011;37613;51.788;21.582;2023-06-26T11:46:42;2.80;;;2.60;;
51529;SDS011;37613;51.788;21.582;2023-06-26T11:50:44;2.60;;;2.20;;
51529;SDS011;37613;51.788;21.582;2023-06-26T11:54:46;3.00;;;2.50;;
51529;SDS011;37613;51.788;21.582;2023-06-26T11:59:02;3.00;;;2.50;;
51529;SDS011;37613;51.788;21.582;2023-06-26T12:07:14;2.70;;;2.50;;
51529;SDS011;37613;51.788;21.582;2023-06-26T12:11:17;3.00;;;2.40;;
51529;SDS011;37613;51.788;21.582;2023-06-26T12:15:22;2.80;;;2.50;;
51529;SDS011;37613;51.788;21.582;2023-06-26T12:19:25;3.60;;;2.40;;
51529;SDS011;37613;51.788;21.582;2023-06-26T12:23:32;3.10;;;2.50;;
51529;SDS011;37613;51.788;21.582;2023-06-26T12:27:36;3.40;;;2.40;;
51529;SDS011;37613;51.788;21.582;2023-06-26T12:31:42;4.50;;;2.60;;
51529;SDS011;37613;51.788;21.582;2023-06-26T12:35:45;4.40;;;2.40;;
51529;SDS011;37613;51.788;21.582;2023-06-26T12:39:55;2.50;;;2.20;;
51529;SDS011;37613;51.788;21.582;2023-06-26T12:43:59;2.90;;;2.20;;
51529;SDS011;37613;51.788;21.582;2023-06-26T12:48:08;4.70;;;2.60;;
51529;SDS011;37613;51.788;21.582;2023-06-26T12:52:13;3.50;;;2.40;;
51529;SDS011;37613;51.788;21.582;2023-06-26T12:56:16;3.50;;;2.70;;
51529;SDS011;37613;51.788;21.582;2023-06-26T13:00:18;2.90;;;2.60;;
51529;SDS011;37613;51.788;21.582;2023-06-26T13:04:21;3.40;;;2.30;;
51529;SDS011;37613;51.788;21.582;2023-06-26T13:08:23;2.30;;;2.10;;
51529;SDS011;37613;51.788;21.582;2023-06-26T13:12:25;2.00;;;1.90;;
51529;SDS011;37613;51.788;21.582;2023-06-26T13:16:27;4.50;;;2.40;;
51529;SDS011;37613;51.788;21.582;2023-06-26T13:20:29;14.30;;;7.20;;
51529;SDS011;37613;51.788;21.582;2023-06-26T13:24:32;4.00;;;3.10;;
51529;SDS011;37613;51.788;21.582;2023-06-26T13:28:34;4.30;;;2.60;;
51529;SDS011;37613;51.788;21.582;2023-06-26T13:32:37;3.50;;;2.90;;
51529;SDS011;37613;51.788;21.582;2023-06-26T13:36:39;3.60;;;3.20;;
51529;SDS011;37613;51.788;21.582;2023-06-26T13:40:41;2.50;;;2.30;;
51529;SDS011;37613;51.788;21.582;2023-06-26T13:44:44;2.00;;;1.90;;
51529;SDS011;37613;51.788;21.582;2023-06-26T13:48:46;6.00;;;3.30;;
51529;SDS011;37613;51.788;21.582;2023-06-26T13:52:48;2.40;;;2.20;;
51529;SDS011;37613;51.788;21.582;2023-06-26T13:56:50;2.70;;;2.50;;
51529;SDS011;37613;51.788;21.582;2023-06-26T14:00:52;2.50;;;2.30;;
51529;SDS011;37613;51.788;21.582;2023-06-26T14:04:55;4.60;;;3.20;;
51529;SDS011;37613;51.788;21.582;2023-06-26T14:08:57;3.00;;;2.30;;
51529;SDS011;37613;51.788;21.582;2023-06-26T14:13:01;2.90;;;2.30;;
51529;SDS011;37613;51.788;21.582;2023-06-26T14:17:04;11.70;;;5.00;;
51529;SDS011;37613;51.788;21.582;2023-06-26T14:21:07;3.90;;;2.40;;
51529;SDS011;37613;51.788;21.582;2023-06-26T14:25:11;9.50;;;5.50;;
51529;SDS011;37613;51.788;21.582;2023-06-26T14:29:14;2.70;;;2.50;;
51529;SDS011;37613;51.788;21.582;2023-06-26T14:33:18;3.40;;;2.40;;
51529;SDS011;37613;51.788;21.582;2023-06-26T14:37:21;6.20;;;3.40;;
51529;SDS011;37613;51.788;21.582;2023-06-26T14:41:23;3.70;;;3.00;;
51529;SDS011;37613;51.788;21.582;2023-06-26T14:45:26;2.50;;;2.30;;
51529;SDS011;37613;51.788;21.582;2023-06-26T14:49:28;3.80;;;2.30;;
51529;SDS011;37613;51.788;21.582;2023-06-26T14:53:30;2.60;;;2.40;;
51529;SDS011;37613;51.788;21.582;2023-06-26T14:57:33;3.50;;;2.00;;
51529;SDS011;37613;51.788;21.582;2023-06-26T15:01:35;2.70;;;2.50;;
51529;SDS011;37613;51.788;21.582;2023-06-26T15:05:37;2.70;;;2.50;;
51529;SDS011;37613;51.788;21.582;2023-06-26T15:09:39;2.50;;;2.30;;
51529;SDS011;37613;51.788;21.582;2023-06-26T15:13:41;2.80;;;2.30;;
51529;SDS011;37613;51.788;21.582;2023-06-26T15:17:43;3.40;;;3.00;;
51529;SDS011;37613;51.788;21.582;2023-06-26T15:21:45;2.20;;;2.10;;
51529;SDS011;37613;51.788;21.582;2023-06-26T15:25:47;2.60;;;2.40;;
51529;SDS011;37613;51.788;21.582;2023-06-26T15:29:49;4.50;;;3.10;;
51529;SDS011;37613;51.788;21.582;2023-06-26T15:33:52;3.50;;;2.90;;
51529;SDS011;37613;51.788;21.582;2023-06-26T15:37:54;2.80;;;2.50;;
51529;SDS011;37613;51.788;21.582;2023-06-26T15:41:56;4.50;;;2.60;;
51529;SDS011;37613;51.788;21.582;2023-06-26T15:45:58;2.90;;;2.60;;
51529;SDS011;37613;51.788;21.582;2023-06-26T15:50:00;2.70;;;2.50;;
51529;SDS011;37613;51.788;21.582;2023-06-26T15:54:03;3.30;;;2.90;;
51529;SDS011;37613;51.788;21.582;2023-06-26T15:58:06;3.10;;;2.90;;
51529;SDS011;37613;51.788;21.582;2023-06-26T16:02:08;2.50;;;2.30;;
51529;SDS011;37613;51.788;21.582;2023-06-26T16:06:10;4.20;;;2.70;;
51529;SDS011;37613;51.788;21.582;2023-06-26T16:10:12;3.60;;;2.50;;
51529;SDS011;37613;51.788;21.582;2023-06-26T16:14:14;4.60;;;3.00;;
51529;SDS011;37613;51.788;21.582;2023-06-26T16:18:17;3.90;;;2.70;;
51529;SDS011;37613;51.788;21.582;2023-06-26T16:22:19;3.30;;;3.00;;
51529;SDS011;37613;51.788;21.582;2023-06-26T16:26:21;3.90;;;3.00;;
51529;SDS011;37613;51.788;21.582;2023-06-26T16:30:23;3.00;;;2.60;;
51529;SDS011;37613;51.788;21.582;2023-06-26T16:34:26;2.90;;;2.70;;
51529;SDS011;37613;51.788;21.582;2023-06-26T16:38:28;2.80;;;2.60;;
51529;SDS011;37613;51.788;21.582;2023-06-26T16:42:30;3.50;;;2.70;;
51529;SDS011;37613;51.788;21.582;2023-06-26T16:46:32;4.80;;;3.10;;
51529;SDS011;37613;51.788;21.582;2023-06-26T16:50:34;3.00;;;2.70;;
51529;SDS011;37613;51.788;21.582;2023-06-26T16:54:36;3.50;;;3.20;;
51529;SDS011;37613;51.788;21.582;2023-06-26T16:58:38;3.30;;;3.00;;
51529;SDS011;37613;51.788;21.582;2023-06-26T17:02:40;3.50;;;3.00;;
51529;SDS011;37613;51.788;21.582;2023-06-26T17:06:42;7.00;;;3.10;;
51529;SDS011;37613;51.788;21.582;2023-06-26T17:10:45;4.40;;;3.00;;
51529;SDS011;37613;51.788;21.582;2023-06-26T17:14:47;4.80;;;3.30;;
51529;SDS011;37613;51.788;21.582;2023-06-26T17:18:49;5.00;;;3.30;;
51529;SDS011;37613;51.788;21.582;2023-06-26T17:22:52;4.20;;;3.30;;
51529;SDS011;37613;51.788;21.582;2023-06-26T17:26:54;6.00;;;3.80;;
51529;SDS011;37613;51.788;21.582;2023-06-26T17:30:56;5.50;;;3.40;;
51529;SDS011;37613;51.788;21.582;2023-06-26T17:34:59;3.20;;;2.70;;
51529;SDS011;37613;51.788;21.582;2023-06-26T17:39:03;3.70;;;3.00;;
51529;SDS011;37613;51.788;21.582;2023-06-26T17:43:07;7.20;;;6.50;;
51529;SDS011;37613;51.788;21.582;2023-06-26T17:47:09;3.40;;;3.10;;
51529;SDS011;37613;51.788;21.582;2023-06-26T17:51:11;3.90;;;3.40;;
51529;SDS011;37613;51.788;21.582;2023-06-26T17:55:13;3.20;;;2.90;;
51529;SDS011;37613;51.788;21.582;2023-06-26T17:59:16;4.70;;;3.00;;
51529;SDS011;37613;51.788;21.582;2023-06-26T18:03:18;3.70;;;3.40;;
51529;SDS011;37613;51.788;21.582;2023-06-26T18:07:20;3.70;;;3.10;;
51529;SDS011;37613;51.788;21.582;2023-06-26T18:11:23;3.60;;;3.00;;
51529;SDS011;37613;51.788;21.582;2023-06-26T18:15:26;3.20;;;2.90;;
51529;SDS011;37613;51.788;21.582;2023-06-26T18:19:28;3.70;;;2.90;;
51529;SDS011;37613;51.788;21.582;2023-06-26T18:23:31;3.20;;;2.90;;
51529;SDS011;37613;51.788;21.582;2023-06-26T18:27:34;5.00;;;3.60;;
51529;SDS011;37613;51.788;21.582;2023-06-26T18:31:36;5.50;;;3.90;;
51529;SDS011;37613;51.788;21.582;2023-06-26T18:35:39;6.30;;;3.60;;
51529;SDS011;37613;51.788;21.582;2023-06-26T18:39:41;4.70;;;3.20;;
51529;SDS011;37613;51.788;21.582;2023-06-26T18:43:44;5.90;;;4.00;;
51529;SDS011;37613;51.788;21.582;2023-06-26T18:47:49;7.40;;;4.20;;
51529;SDS011;37613;51.788;21.582;2023-06-26T18:51:54;23.20;;;4.90;;
51529;SDS011;37613;51.788;21.582;2023-06-26T18:55:56;39.40;;;7.10;;
51529;SDS011;37613;51.788;21.582;2023-06-26T18:59:58;29.20;;;7.70;;
51529;SDS011;37613;51.788;21.582;2023-06-26T19:04:01;32.00;;;10.20;;
51529;SDS011;37613;51.788;21.582;2023-06-26T19:08:04;22.00;;;12.20;;
51529;SDS011;37613;51.788;21.582;2023-06-26T19:12:08;20.40;;;12.10;;
51529;SDS011;37613;51.788;21.582;2023-06-26T19:16:11;30.20;;;15.90;;
51529;SDS011;37613;51.788;21.582;2023-06-26T19:20:14;36.30;;;15.70;;
51529;SDS011;37613;51.788;21.582;2023-06-26T19:24:17;24.30;;;14.40;;
51529;SDS011;37613;51.788;21.582;2023-06-26T19:28:19;19.60;;;13.50;;
51529;SDS011;37613;51.788;21.582;2023-06-26T19:32:22;30.80;;;13.50;;
51529;SDS011;37613;51.788;21.582;2023-06-26T19:36:24;23.60;;;11.40;;
51529;SDS011;37613;51.788;21.582;2023-06-26T19:40:31;25.40;;;12.30;;
51529;SDS011;37613;51.788;21.582;2023-06-26T19:44:34;32.20;;;11.60;;
51529;SDS011;37613;51.788;21.582;2023-06-26T19:48:40;40.00;;;11.60;;
51529;SDS011;37613;51.788;21.582;2023-06-26T19:52:42;35.80;;;11.80;;
51529;SDS011;37613;51.788;21.582;2023-06-26T19:56:48;36.40;;;12.10;;
51529;SDS011;37613;51.788;21.582;2023-06-26T20:00:52;29.20;;;10.60;;
51529;SDS011;37613;51.788;21.582;2023-06-26T20:04:58;28.30;;;10.80;;
51529;SDS011;37613;51.788;21.582;2023-06-26T20:09:00;25.20;;;10.60;;
51529;SDS011;37613;51.788;21.582;2023-06-26T20:13:04;28.90;;;11.80;;
51529;SDS011;37613;51.788;21.582;2023-06-26T20:21:09;34.60;;;21.90;;
51529;SDS011;37613;51.788;21.582;2023-06-26T20:25:14;34.10;;;17.90;;
51529;SDS011;37613;51.788;21.582;2023-06-26T20:29:19;28.00;;;18.10;;
51529;SDS011;37613;51.788;21.582;2023-06-26T20:33:22;24.90;;;16.10;;
51529;SDS011;37613;51.788;21.582;2023-06-26T20:37:27;32.20;;;16.60;;
51529;SDS011;37613;51.788;21.582;2023-06-26T20:41:30;36.10;;;17.00;;
51529;SDS011;37613;51.788;21.582;2023-06-26T20:45:33;28.40;;;16.60;;
51529;SDS011;37613;51.788;21.582;2023-06-26T20:49:35;27.80;;;16.60;;
51529;SDS011;37613;51.788;21.582;2023-06-26T20:53:41;28.80;;;17.50;;
51529;SDS011;37613;51.788;21.582;2023-06-26T20:57:47;31.10;;;16.70;;
51529;SDS011;37613;51.788;21.582;2023-06-26T21:01:52;30.70;;;17.30;;
51529;SDS011;37613;51.788;21.582;2023-06-26T21:05:58;30.80;;;17.20;;
51529;SDS011;37613;51.788;21.582;2023-06-26T21:10:00;23.80;;;15.00;;
51529;SDS011;37613;51.788;21.582;2023-06-26T21:14:03;23.00;;;14.10;;
51529;SDS011;37613;51.788;21.582;2023-06-26T21:18:08;26.50;;;15.20;;
51529;SDS011;37613;51.788;21.582;2023-06-26T21:22:11;25.50;;;14.90;;
51529;SDS011;37613;51.788;21.582;2023-06-26T21:26:13;22.90;;;13.90;;
51529;SDS011;37613;51.788;21.582;2023-06-26T21:30:15;22.20;;;13.70;;
51529;SDS011;37613;51.788;21.582;2023-06-26T21:38:25;25.90;;;12.50;;
51529;SDS011;37613;51.788;21.582;2023-06-26T21:42:28;26.90;;;14.20;;
51529;SDS011;37613;51.788;21.582;2023-06-26T21:46:33;22.70;;;13.10;;
51529;SDS011;37613;51.788;21.582;2023-06-26T21:50:35;23.20;;;12.90;;
51529;SDS011;37613;51.788;21.582;2023-06-26T21:54:40;24.90;;;13.70;;
51529;SDS011;37613;51.788;21.582;2023-06-26T21:58:42;27.60;;;13.30;;
51529;SDS011;37613;51.788;21.582;2023-06-26T22:02:45;22.50;;;13.60;;
51529;SDS011;37613;51.788;21.582;2023-06-26T22:06:47;23.90;;;13.70;;
51529;SDS011;37613;51.788;21.582;2023-06-26T22:10:49;27.90;;;14.90;;
51529;SDS011;37613;51.788;21.582;2023-06-26T22:14:54;26.00;;;14.10;;
51529;SDS011;37613;51.788;21.582;2023-06-26T22:18:58;26.80;;;14.10;;
51529;SDS011;37613;51.788;21.582;2023-06-26T22:23:01;25.20;;;13.20;;
51529;SDS011;37613;51.788;21.582;2023-06-26T22:27:11;21.00;;;12.60;;
51529;SDS011;37613;51.788;21.582;2023-06-26T22:31:14;22.60;;;12.70;;
51529;SDS011;37613;51.788;21.582;2023-06-26T22:35:19;21.40;;;12.10;;
51529;SDS011;37613;51.788;21.582;2023-06-26T22:39:22;28.10;;;11.50;;
51529;SDS011;37613;51.788;21.582;2023-06-26T22:43:30;20.50;;;12.10;;
51529;SDS011;37613;51.788;21.582;2023-06-26T22:47:37;23.80;;;11.40;;
51529;SDS011;37613;51.788;21.582;2023-06-26T22:51:40;19.30;;;11.30;;
51529;SDS011;37613;51.788;21.582;2023-06-26T22:55:48;21.90;;;11.30;;
51529;SDS011;37613;51.788;21.582;2023-06-26T23:03:55;21.50;;;10.00;;
51529;SDS011;37613;51.788;21.582;2023-06-26T23:08:05;21.90;;;11.60;;
51529;SDS011;37613;51.788;21.582;2023-06-26T23:12:11;20.90;;;12.60;;
51529;SDS011;37613;51.788;21.582;2023-06-26T23:16:15;19.40;;;10.40;;
51529;SDS011;37613;51.788;21.582;2023-06-26T23:20:20;20.60;;;10.50;;
51529;SDS011;37613;51.788;21.582;2023-06-26T23:28:25;27.30;;;11.80;;
51529;SDS011;37613;51.788;21.582;2023-06-26T23:32:28;20.20;;;11.80;;
51529;SDS011;37613;51.788;21.582;2023-06-26T23:36:32;20.80;;;11.00;;
51529;SDS011;37613;51.788;21.582;2023-06-26T23:40:39;23.40;;;11.60;;
51529;SDS011;37613;51.788;21.582;2023-06-26T23:44:41;24.90;;;11.20;;
51529;SDS011;37613;51.788;21.582;2023-06-26T23:48:46;20.60;;;11.50;;
51529;SDS011;37613;51.788;21.582;2023-06-26T23:52:51;22.40;;;11.00;;
51529;SDS011;37613;51.788;21.582;2023-06-26T23:56:55;25.10;;;11.10;;
